createdAt,value
2022-08-07T00:00:05.531Z,22.00
2022-08-07T00:01:12.501Z,21.60
2022-08-07T00:02:37.082Z,21.60
2022-08-07T00:03:18.247Z,21.50
2022-08-07T00:04:24.510Z,21.36
2022-08-07T00:05:25.907Z,20.90
2022-08-07T00:06:29.613Z,20.00
2022-08-07T00:07:40.083Z,22.10
2022-08-07T00:08:37.173Z,22.00
2022-08-07T00:09:50.201Z,22.10
2022-08-07T00:10:47.617Z,22.90
2022-08-07T00:11:55.684Z,22.20
2022-08-07T00:13:00.224Z,23.90
2022-08-07T00:13:59.852Z,23.50
2022-08-07T00:15:01.973Z,20.30
2022-08-07T00:16:06.455Z,24.40
2022-08-07T00:17:10.937Z,23.70
2022-08-07T00:18:19.837Z,23.50
2022-08-07T00:19:21.795Z,24.60
2022-08-07T00:20:29.781Z,24.50
2022-08-07T00:21:56.858Z,23.60
2022-08-07T00:22:35.776Z,25.80
2022-08-07T00:23:47.578Z,24.50
2022-08-07T00:24:50.474Z,25.00
2022-08-07T00:26:01.599Z,23.67
2022-08-07T00:27:06.199Z,20.70
2022-08-07T00:28:02.418Z,23.70
2022-08-07T00:29:04.910Z,22.50
2022-08-07T00:30:21.718Z,24.80
2022-08-07T00:31:16.453Z,25.60
2022-08-07T00:32:18.379Z,21.50
2022-08-07T00:33:22.409Z,22.60
2022-08-07T00:34:28.562Z,25.00
2022-08-07T00:35:31.433Z,21.50
2022-08-07T00:36:36.162Z,24.40
2022-08-07T00:37:47.706Z,21.90
2022-08-07T00:38:44.426Z,20.30
2022-08-07T00:39:54.614Z,20.67
2022-08-07T00:40:50.622Z,20.70
2022-08-07T00:42:01.665Z,23.70
2022-08-07T00:43:01.395Z,24.20
2022-08-07T00:44:03.467Z,22.90
2022-08-07T00:45:07.408Z,21.89
2022-08-07T00:46:12.356Z,22.00
2022-08-07T00:48:08.302Z,23.30
2022-08-07T00:48:30.824Z,24.80
2022-08-07T00:50:16.746Z,22.70
2022-08-07T00:50:46.182Z,23.60
2022-08-07T00:51:58.190Z,22.70
2022-08-07T00:52:36.750Z,22.50
2022-08-07T00:53:50.725Z,23.78
2022-08-07T00:54:42.713Z,22.60
2022-08-07T00:56:03.107Z,23.70
2022-08-07T00:56:50.166Z,24.80
2022-08-07T00:57:55.805Z,24.10
2022-08-07T00:58:58.445Z,24.40
2022-08-07T01:00:02.940Z,25.80
2022-08-07T01:01:05.197Z,25.00
2022-08-07T01:02:14.178Z,23.30
2022-08-07T01:03:13.602Z,24.60
2022-08-07T01:04:21.781Z,24.10
2022-08-07T01:05:24.602Z,20.20
2022-08-07T01:06:28.523Z,22.20
2022-08-07T01:07:31.564Z,25.50
2022-08-07T01:08:34.222Z,23.10
2022-08-07T01:10:04.687Z,22.30
2022-08-07T01:10:40.721Z,21.30
2022-08-07T01:12:27.473Z,23.50
2022-08-07T01:12:53.997Z,22.60
2022-08-07T01:13:55.519Z,26.10
2022-08-07T01:15:01.762Z,24.45
2022-08-07T01:16:06.680Z,22.20
2022-08-07T01:17:10.124Z,25.00
2022-08-07T01:18:16.901Z,24.50
2022-08-07T01:19:19.846Z,22.20
2022-08-07T01:20:30.800Z,22.20
2022-08-07T01:21:32.155Z,25.80
2022-08-07T01:22:37.881Z,21.80
2022-08-07T01:23:46.658Z,19.40
2022-08-07T01:24:49.893Z,21.70
2022-08-07T01:25:55.671Z,20.00
2022-08-07T01:26:59.289Z,22.90
2022-08-07T01:28:02.922Z,24.00
2022-08-07T01:29:06.002Z,26.50
2022-08-07T01:30:11.332Z,25.10
2022-08-07T01:31:15.467Z,25.20
2022-08-07T01:32:19.737Z,23.30
2022-08-07T01:33:24.350Z,23.40
2022-08-07T01:34:31.378Z,23.60
2022-08-07T01:35:36.882Z,22.80
2022-08-07T01:36:40.841Z,24.50
2022-08-07T01:37:45.935Z,23.30
2022-08-07T01:38:48.538Z,23.90
2022-08-07T01:39:56.176Z,23.20
2022-08-07T01:41:05.509Z,23.20
2022-08-07T01:42:38.393Z,25.30
2022-08-07T01:43:13.874Z,26.50
2022-08-07T01:44:17.846Z,25.60
2022-08-07T01:45:33.140Z,21.30
2022-08-07T01:46:29.258Z,21.80
2022-08-07T01:48:19.533Z,27.00
2022-08-07T01:48:41.032Z,23.70
2022-08-07T01:49:43.921Z,23.50
2022-08-07T01:50:55.701Z,24.70
2022-08-07T01:52:04.895Z,24.00
2022-08-07T01:53:08.913Z,24.70
2022-08-07T01:54:33.340Z,26.40
2022-08-07T01:55:24.099Z,24.00
2022-08-07T01:56:30.964Z,18.80
2022-08-07T01:58:05.531Z,23.90
2022-08-07T01:58:48.309Z,25.30
2022-08-07T02:00:03.750Z,24.70
2022-08-07T02:01:58.862Z,23.20
2022-08-07T02:02:32.752Z,27.90
2022-08-07T02:03:42.794Z,25.00
2022-08-07T02:04:52.676Z,21.70
2022-08-07T02:05:59.642Z,24.00
2022-08-07T02:07:00.728Z,25.70
2022-08-07T02:08:07.323Z,21.20
2022-08-07T02:09:52.461Z,23.80
2022-08-07T02:10:26.045Z,23.20
2022-08-07T02:12:02.876Z,24.70
2022-08-07T02:12:40.343Z,29.70
2022-08-07T02:13:57.801Z,28.60
2022-08-07T02:14:55.251Z,30.60
2022-08-07T02:16:11.815Z,31.00
2022-08-07T02:17:24.725Z,30.40
2022-08-07T02:18:22.400Z,33.80
2022-08-07T02:20:07.016Z,25.90
2022-08-07T02:20:32.966Z,29.10
2022-08-07T02:21:55.452Z,19.30
2022-08-07T02:22:43.992Z,26.10
2022-08-07T02:23:49.201Z,25.90
2022-08-07T02:24:55.296Z,25.90
2022-08-07T02:26:30.605Z,30.80
2022-08-07T02:27:04.553Z,24.80
2022-08-07T02:28:07.944Z,24.60
2022-08-07T02:29:13.816Z,22.80
2022-08-07T02:30:19.328Z,27.70
2022-08-07T02:31:28.637Z,27.30
2022-08-07T02:32:30.209Z,26.00
2022-08-07T02:33:57.246Z,25.90
2022-08-07T02:34:48.927Z,27.00
2022-08-07T02:36:30.727Z,26.00
2022-08-07T02:36:53.025Z,25.10
2022-08-07T02:37:57.457Z,25.00
2022-08-07T02:39:16.230Z,23.90
2022-08-07T02:40:30.009Z,24.20
2022-08-07T02:41:14.249Z,27.70
2022-08-07T02:42:20.565Z,23.90
2022-08-07T02:43:27.604Z,26.70
2022-08-07T02:44:34.306Z,26.30
2022-08-07T02:45:58.462Z,24.40
2022-08-07T02:46:46.571Z,28.90
2022-08-07T02:47:49.403Z,26.50
2022-08-07T02:48:55.113Z,23.90
2022-08-07T02:49:59.669Z,24.20
2022-08-07T02:51:03.637Z,24.40
2022-08-07T02:52:10.057Z,25.20
2022-08-07T02:53:18.762Z,26.90
2022-08-07T02:54:25.273Z,29.00
2022-08-07T02:56:04.105Z,24.20
2022-08-07T02:56:38.989Z,26.30
2022-08-07T02:57:44.487Z,27.90
2022-08-07T02:58:54.219Z,26.30
2022-08-07T03:00:01.272Z,28.60
2022-08-07T03:01:16.038Z,29.20
2022-08-07T03:02:14.001Z,32.10
2022-08-07T03:03:22.644Z,26.80
2022-08-07T03:04:23.548Z,26.30
2022-08-07T03:05:35.743Z,25.90
2022-08-07T03:06:34.590Z,30.30
2022-08-07T03:08:04.946Z,28.00
2022-08-07T03:08:45.171Z,26.30
2022-08-07T03:09:51.972Z,30.80
2022-08-07T03:10:52.873Z,26.20
2022-08-07T03:12:02.737Z,26.70
2022-08-07T03:13:06.266Z,27.40
2022-08-07T03:14:11.785Z,28.90
2022-08-07T03:15:14.044Z,26.90
2022-08-07T03:16:22.992Z,31.50
2022-08-07T03:17:25.121Z,25.50
2022-08-07T03:18:34.652Z,27.70
2022-08-07T03:19:36.969Z,26.20
2022-08-07T03:20:41.354Z,27.00
2022-08-07T03:21:50.509Z,27.40
2022-08-07T03:22:50.536Z,21.30
2022-08-07T03:24:19.444Z,33.40
2022-08-07T03:25:03.219Z,30.20
2022-08-07T03:26:21.045Z,25.70
2022-08-07T03:27:30.695Z,29.70
2022-08-07T03:28:38.147Z,28.70
2022-08-07T03:29:33.686Z,25.10
2022-08-07T03:30:38.252Z,26.30
2022-08-07T03:31:46.485Z,25.10
2022-08-07T03:32:57.136Z,33.30
2022-08-07T03:33:59.680Z,27.50
2022-08-07T03:35:17.674Z,28.10
2022-08-07T03:36:13.250Z,27.80
2022-08-07T03:37:20.677Z,28.40
2022-08-07T03:38:29.615Z,29.70
2022-08-07T03:39:59.491Z,29.60
2022-08-07T03:40:36.910Z,38.10
2022-08-07T03:41:47.481Z,30.40
2022-08-07T03:42:46.033Z,32.10
2022-08-07T03:43:57.411Z,40.70
2022-08-07T03:44:58.028Z,36.60
2022-08-07T03:46:18.110Z,39.10
2022-08-07T03:47:13.989Z,33.60
2022-08-07T03:48:15.446Z,34.60
2022-08-07T03:49:17.944Z,30.27
2022-08-07T03:50:23.087Z,27.60
2022-08-07T03:51:30.681Z,27.70
2022-08-07T03:52:32.474Z,25.50
2022-08-07T03:54:33.448Z,26.40
2022-08-07T03:54:54.314Z,29.90
2022-08-07T03:55:58.365Z,27.20
2022-08-07T03:57:03.309Z,24.50
2022-08-07T03:58:32.542Z,32.90
2022-08-07T03:59:13.437Z,27.40
2022-08-07T04:00:17.359Z,31.80
2022-08-07T04:01:24.776Z,33.40
2022-08-07T04:02:28.161Z,33.30
2022-08-07T04:03:49.885Z,33.20
2022-08-07T04:04:37.252Z,31.40
2022-08-07T04:05:42.298Z,31.00
2022-08-07T04:06:50.795Z,29.00
2022-08-07T04:07:56.019Z,36.40
2022-08-07T04:09:01.932Z,30.70
2022-08-07T04:10:06.048Z,30.00
2022-08-07T04:12:15.690Z,31.20
2022-08-07T04:12:27.199Z,29.20
2022-08-07T04:13:27.635Z,27.20
2022-08-07T04:14:37.299Z,27.20
2022-08-07T04:15:34.162Z,29.30
2022-08-07T04:16:40.344Z,28.50
2022-08-07T04:18:56.602Z,32.00
2022-08-07T04:18:58.977Z,27.80
2022-08-07T04:19:54.673Z,26.20
2022-08-07T04:21:00.307Z,26.40
2022-08-07T04:22:07.792Z,25.80
2022-08-07T04:23:09.849Z,23.60
2022-08-07T04:24:33.570Z,30.60
2022-08-07T04:25:29.181Z,23.90
2022-08-07T04:26:29.738Z,23.70
2022-08-07T04:27:39.239Z,25.50
2022-08-07T04:28:42.265Z,24.30
2022-08-07T04:30:01.718Z,25.30
2022-08-07T04:30:55.635Z,24.80
2022-08-07T04:32:03.405Z,21.00
2022-08-07T04:33:09.819Z,22.70
2022-08-07T04:34:17.275Z,21.30
2022-08-07T04:35:21.502Z,20.30
2022-08-07T04:36:26.277Z,22.80
2022-08-07T04:37:31.394Z,22.10
2022-08-07T04:38:36.542Z,25.90
2022-08-07T04:39:40.589Z,24.30
2022-08-07T04:40:52.555Z,25.20
2022-08-07T04:41:51.066Z,22.20
2022-08-07T04:42:54.927Z,22.60
2022-08-07T04:44:12.241Z,20.90
2022-08-07T04:45:08.510Z,24.00
2022-08-07T04:46:20.235Z,20.90
2022-08-07T04:47:58.856Z,22.40
2022-08-07T04:48:53.750Z,23.30
2022-08-07T04:50:07.523Z,24.60
2022-08-07T04:51:19.724Z,24.00
2022-08-07T04:52:36.719Z,22.10
2022-08-07T04:54:01.330Z,24.00
2022-08-07T04:54:59.107Z,22.20
2022-08-07T04:58:10.084Z,26.10
2022-08-07T04:58:14.999Z,28.90
2022-08-07T04:59:17.004Z,25.80
2022-08-07T05:00:09.696Z,29.30
2022-08-07T05:01:17.310Z,25.50
2022-08-07T05:02:42.772Z,23.20
2022-08-07T05:04:08.352Z,20.20
2022-08-07T05:05:52.950Z,21.10
2022-08-07T05:06:43.497Z,22.10
2022-08-07T05:07:55.431Z,23.50
2022-08-07T05:09:04.944Z,21.10
2022-08-07T05:10:26.400Z,25.00
2022-08-07T05:11:56.892Z,19.90
2022-08-07T05:12:46.249Z,22.10
2022-08-07T05:14:55.367Z,23.40
2022-08-07T05:15:14.454Z,20.20
2022-08-07T05:16:22.202Z,21.20
2022-08-07T05:17:52.391Z,22.30
2022-08-07T05:18:37.495Z,21.70
2022-08-07T05:19:46.666Z,22.70
2022-08-07T05:20:53.549Z,18.90
2022-08-07T05:22:01.823Z,25.40
2022-08-07T05:23:15.763Z,27.20
2022-08-07T05:24:15.385Z,24.90
2022-08-07T05:25:37.376Z,25.10
2022-08-07T05:26:27.069Z,28.70
2022-08-07T05:28:02.672Z,24.70
2022-08-07T05:28:40.585Z,24.70
2022-08-07T05:29:51.142Z,24.30
2022-08-07T05:30:53.817Z,28.60
2022-08-07T05:31:56.951Z,25.10
2022-08-07T05:33:03.479Z,24.20
2022-08-07T05:34:12.456Z,27.80
2022-08-07T05:35:23.500Z,25.70
2022-08-07T05:36:30.613Z,23.10
2022-08-07T05:37:31.136Z,20.80
2022-08-07T05:39:00.606Z,22.90
2022-08-07T05:40:05.414Z,26.00
2022-08-07T05:40:51.503Z,22.40
2022-08-07T05:42:02.882Z,21.70
2022-08-07T05:43:01.834Z,22.90
2022-08-07T05:44:12.769Z,21.40
2022-08-07T05:45:26.148Z,23.80
2022-08-07T05:46:20.180Z,20.40
2022-08-07T05:48:00.075Z,22.70
2022-08-07T05:48:30.086Z,22.20
2022-08-07T05:49:41.101Z,23.70
2022-08-07T05:50:42.842Z,22.40
2022-08-07T05:51:47.125Z,23.00
2022-08-07T05:52:51.518Z,24.50
2022-08-07T05:54:13.487Z,22.80
2022-08-07T05:54:58.615Z,24.10
2022-08-07T05:56:06.113Z,22.10
2022-08-07T05:57:08.543Z,21.50
2022-08-07T05:58:12.684Z,22.20
2022-08-07T05:59:19.325Z,21.50
2022-08-07T06:00:26.183Z,25.50
2022-08-07T06:01:35.932Z,19.20
2022-08-07T06:02:39.487Z,26.40
2022-08-07T06:03:56.754Z,23.40
2022-08-07T06:04:57.643Z,25.20
2022-08-07T06:06:01.064Z,25.40
2022-08-07T06:07:05.843Z,25.50
2022-08-07T06:08:29.341Z,31.40
2022-08-07T06:09:17.127Z,28.50
2022-08-07T06:10:22.143Z,26.50
2022-08-07T06:11:25.850Z,29.50
2022-08-07T06:12:33.192Z,31.30
2022-08-07T06:14:12.014Z,27.00
2022-08-07T06:14:37.322Z,31.90
2022-08-07T06:15:42.484Z,28.60
2022-08-07T06:16:50.216Z,29.20
2022-08-07T06:17:55.360Z,25.80
2022-08-07T06:19:01.322Z,28.70
2022-08-07T06:20:05.703Z,25.90
2022-08-07T06:22:16.971Z,25.30
2022-08-07T06:22:24.075Z,28.30
2022-08-07T06:23:46.506Z,27.30
2022-08-07T06:24:46.346Z,26.09
2022-08-07T06:25:34.718Z,29.00
2022-08-07T06:26:34.743Z,26.30
2022-08-07T06:28:00.434Z,27.70
2022-08-07T06:28:57.385Z,28.60
2022-08-07T06:30:03.926Z,28.70
2022-08-07T06:31:06.651Z,26.70
2022-08-07T06:32:08.504Z,27.50
2022-08-07T06:33:16.059Z,22.56
2022-08-07T06:34:25.573Z,26.40
2022-08-07T06:35:38.996Z,23.10
2022-08-07T06:36:35.780Z,25.60
2022-08-07T06:37:43.495Z,22.00
2022-08-07T06:38:58.395Z,22.70
2022-08-07T06:40:17.019Z,23.70
2022-08-07T06:40:55.913Z,26.90
2022-08-07T06:42:18.478Z,24.10
2022-08-07T06:43:25.665Z,22.20
2022-08-07T06:44:51.103Z,21.90
2022-08-07T06:45:50.652Z,23.70
2022-08-07T06:47:12.311Z,25.30
2022-08-07T06:47:59.927Z,21.40
2022-08-07T06:49:07.731Z,24.60
2022-08-07T06:50:14.288Z,25.40
2022-08-07T06:51:31.098Z,27.00
2022-08-07T06:52:31.383Z,27.00
2022-08-07T06:55:29.987Z,21.50
2022-08-07T06:55:33.377Z,24.70
2022-08-07T06:55:53.677Z,23.90
2022-08-07T06:56:52.200Z,22.80
2022-08-07T06:58:06.538Z,21.10
2022-08-07T07:00:14.350Z,22.60
2022-08-07T07:00:38.201Z,22.60
2022-08-07T07:01:48.729Z,22.50
2022-08-07T07:02:54.222Z,22.00
2022-08-07T07:03:57.208Z,24.40
2022-08-07T07:04:58.866Z,22.70
2022-08-07T07:06:06.274Z,20.55
2022-08-07T07:07:10.794Z,25.30
2022-08-07T07:08:18.220Z,25.80
2022-08-07T07:09:26.037Z,22.70
2022-08-07T07:10:32.635Z,24.00
2022-08-07T07:12:07.968Z,22.40
2022-08-07T07:12:53.366Z,20.80
2022-08-07T07:14:01.457Z,26.20
2022-08-07T07:15:26.021Z,27.00
2022-08-07T07:16:30.547Z,21.10
2022-08-07T07:17:45.165Z,22.40
2022-08-07T07:18:50.794Z,21.60
2022-08-07T07:19:59.128Z,23.80
2022-08-07T07:21:13.614Z,24.50
2022-08-07T07:22:37.024Z,23.70
2022-08-07T07:24:06.491Z,22.20
2022-08-07T07:24:21.547Z,26.80
2022-08-07T07:26:34.133Z,24.09
2022-08-07T07:26:36.831Z,23.80
2022-08-07T07:28:02.156Z,25.10
2022-08-07T07:29:28.586Z,22.60
2022-08-07T07:30:09.294Z,24.40
2022-08-07T07:31:21.630Z,23.40
2022-08-07T07:32:24.210Z,23.30
2022-08-07T07:33:29.882Z,22.20
2022-08-07T07:34:37.751Z,20.30
2022-08-07T07:36:04.819Z,25.40
2022-08-07T07:36:52.659Z,24.40
2022-08-07T07:38:02.568Z,21.60
2022-08-07T07:39:03.639Z,23.60
2022-08-07T07:40:10.200Z,20.80
2022-08-07T07:41:16.443Z,22.50
2022-08-07T07:42:21.882Z,22.40
2022-08-07T07:43:47.820Z,22.60
2022-08-07T07:44:35.286Z,21.90
2022-08-07T07:46:37.326Z,23.50
2022-08-07T07:46:57.249Z,24.20
2022-08-07T07:47:52.835Z,18.50
2022-08-07T07:49:00.297Z,24.80
2022-08-07T07:50:35.100Z,21.00
2022-08-07T07:51:08.771Z,22.90
2022-08-07T07:52:12.582Z,24.50
2022-08-07T07:53:23.221Z,21.80
2022-08-07T07:54:24.328Z,21.50
2022-08-07T07:55:37.077Z,25.40
2022-08-07T07:56:35.985Z,23.10
2022-08-07T07:57:44.048Z,22.40
2022-08-07T07:58:46.988Z,18.50
2022-08-07T07:59:53.847Z,22.40
2022-08-07T08:00:58.730Z,23.30
2022-08-07T08:02:10.242Z,20.10
2022-08-07T08:03:16.616Z,21.00
2022-08-07T08:04:20.202Z,20.90
2022-08-07T08:05:24.918Z,20.70
2022-08-07T08:06:31.027Z,21.10
2022-08-07T08:07:42.436Z,18.10
2022-08-07T08:08:42.747Z,18.90
2022-08-07T08:09:52.343Z,17.50
2022-08-07T08:10:52.269Z,15.90
2022-08-07T08:12:02.837Z,18.30
2022-08-07T08:13:02.955Z,19.60
2022-08-07T08:14:06.909Z,21.90
2022-08-07T08:15:15.224Z,17.20
2022-08-07T08:16:25.076Z,18.20
2022-08-07T08:17:57.160Z,18.70
2022-08-07T08:18:33.861Z,15.60
2022-08-07T08:20:18.223Z,18.70
2022-08-07T08:20:47.941Z,17.20
2022-08-07T08:22:02.719Z,18.10
2022-08-07T08:23:00.210Z,18.50
2022-08-07T08:24:06.451Z,16.80
2022-08-07T08:25:26.303Z,16.30
2022-08-07T08:26:20.460Z,11.70
2022-08-07T08:27:26.431Z,15.50
2022-08-07T08:28:38.242Z,17.40
2022-08-07T08:29:55.933Z,16.20
2022-08-07T08:30:55.976Z,16.40
2022-08-07T08:32:17.008Z,15.70
2022-08-07T08:33:15.237Z,18.20
2022-08-07T08:34:27.050Z,14.70
2022-08-07T08:35:28.829Z,16.30
2022-08-07T08:36:34.814Z,15.00
2022-08-07T08:37:59.680Z,16.60
2022-08-07T08:38:46.536Z,1.10
2022-08-07T08:39:54.994Z,19.20
2022-08-07T08:40:59.243Z,14.90
2022-08-07T08:42:19.038Z,12.60
2022-08-07T08:43:56.205Z,15.60
2022-08-07T08:45:41.880Z,15.80
2022-08-07T08:47:10.062Z,14.40
2022-08-07T08:48:35.966Z,15.10
2022-08-07T08:50:05.973Z,14.60
2022-08-07T08:51:29.611Z,14.90
2022-08-07T08:52:36.001Z,14.10
2022-08-07T08:54:00.006Z,14.40
2022-08-07T08:55:21.029Z,12.90
2022-08-07T08:56:29.443Z,13.00
2022-08-07T08:57:50.947Z,11.10
2022-08-07T08:59:12.764Z,12.30
2022-08-07T09:00:12.946Z,14.30
2022-08-07T09:01:43.692Z,15.20
2022-08-07T09:03:07.540Z,16.20
2022-08-07T09:04:26.093Z,14.80
2022-08-07T09:05:42.277Z,16.00
2022-08-07T09:07:00.693Z,12.80
2022-08-07T09:08:06.380Z,17.90
2022-08-07T09:09:23.579Z,14.30
2022-08-07T09:10:35.302Z,16.30
2022-08-07T09:11:53.291Z,13.40
2022-08-07T09:13:14.686Z,15.40
2022-08-07T09:14:33.245Z,14.00
2022-08-07T09:16:20.174Z,13.70
2022-08-07T09:17:14.991Z,14.70
2022-08-07T09:18:47.356Z,15.20
2022-08-07T09:20:30.712Z,13.60
2022-08-07T09:22:22.389Z,13.00
2022-08-07T09:24:32.441Z,10.80
2022-08-07T09:24:33.139Z,13.60
2022-08-07T09:25:27.031Z,16.40
2022-08-07T09:26:57.052Z,11.90
2022-08-07T09:30:03.321Z,14.30
2022-08-07T09:30:04.786Z,11.70
2022-08-07T09:30:46.738Z,17.70
2022-08-07T09:32:17.150Z,8.80
2022-08-07T09:33:52.814Z,15.90
2022-08-07T09:34:58.971Z,10.80
2022-08-07T09:36:12.767Z,21.00
2022-08-07T09:37:48.288Z,24.30
2022-08-07T09:38:50.177Z,19.90
2022-08-07T09:40:03.432Z,21.60
2022-08-07T09:42:50.428Z,25.00
2022-08-07T09:44:06.914Z,19.20
2022-08-07T09:47:26.254Z,16.10
2022-08-07T09:47:55.666Z,17.50
2022-08-07T09:48:14.597Z,15.00
2022-08-07T09:50:01.045Z,14.20
2022-08-07T09:52:53.844Z,18.80
2022-08-07T09:54:02.664Z,12.40
2022-08-07T09:55:10.472Z,13.30
2022-08-07T09:56:47.893Z,17.10
2022-08-07T09:58:17.957Z,12.90
2022-08-07T10:00:01.212Z,13.50
2022-08-07T10:01:51.843Z,13.40
2022-08-07T10:02:56.411Z,13.10
2022-08-07T10:04:28.162Z,14.10
2022-08-07T10:05:59.860Z,13.30
2022-08-07T10:07:06.550Z,13.40
2022-08-07T10:08:51.246Z,11.90
2022-08-07T10:10:21.927Z,11.20
2022-08-07T10:12:02.144Z,14.40
2022-08-07T10:12:55.586Z,9.60
2022-08-07T10:14:23.018Z,11.80
2022-08-07T10:15:44.204Z,9.20
2022-08-07T10:17:10.583Z,11.70
2022-08-07T10:18:20.762Z,9.00
2022-08-07T10:19:57.360Z,8.30
2022-08-07T10:22:15.036Z,9.30
2022-08-07T10:23:13.011Z,9.30
2022-08-07T10:24:39.687Z,8.70
2022-08-07T10:25:53.077Z,8.70
2022-08-07T10:27:20.242Z,9.60
2022-08-07T10:28:37.115Z,8.20
2022-08-07T10:30:06.842Z,6.10
2022-08-07T10:31:38.521Z,10.60
2022-08-07T10:32:59.966Z,8.50
2022-08-07T10:34:17.950Z,9.50
2022-08-07T10:35:55.567Z,10.40
2022-08-07T10:36:37.674Z,11.10
2022-08-07T10:38:21.224Z,12.90
2022-08-07T10:39:41.344Z,13.50
2022-08-07T10:40:35.921Z,10.40
2022-08-07T10:41:51.941Z,11.10
2022-08-07T10:42:54.404Z,12.40
2022-08-07T10:44:09.061Z,10.10
2022-08-07T10:45:57.697Z,11.70
2022-08-07T10:46:33.230Z,9.90
2022-08-07T10:48:03.076Z,10.50
2022-08-07T10:49:24.528Z,12.60
2022-08-07T10:50:39.002Z,11.00
2022-08-07T10:52:01.672Z,7.20
2022-08-07T10:53:07.927Z,9.30
2022-08-07T10:54:18.867Z,8.40
2022-08-07T10:55:38.158Z,10.00
2022-08-07T10:56:56.045Z,8.40
2022-08-07T10:58:36.661Z,8.80
2022-08-07T10:59:47.895Z,8.70
2022-08-07T11:00:56.102Z,10.90
2022-08-07T11:02:12.562Z,6.90
2022-08-07T11:03:37.607Z,10.10
2022-08-07T11:04:54.050Z,9.00
2022-08-07T11:06:18.269Z,8.40
2022-08-07T11:07:59.182Z,9.40
2022-08-07T11:09:11.345Z,12.60
2022-08-07T11:10:14.671Z,12.10
2022-08-07T11:11:37.684Z,11.40
2022-08-07T11:12:49.721Z,9.00
2022-08-07T11:14:44.469Z,10.90
2022-08-07T11:15:09.614Z,9.70
2022-08-07T11:16:25.628Z,10.60
2022-08-07T11:17:45.090Z,8.90
2022-08-07T11:18:51.088Z,11.00
2022-08-07T11:19:57.953Z,11.40
2022-08-07T11:21:09.500Z,11.90
2022-08-07T11:22:32.522Z,11.20
2022-08-07T11:23:56.206Z,11.60
2022-08-07T11:25:06.729Z,9.90
2022-08-07T11:26:15.964Z,10.60
2022-08-07T11:28:01.390Z,12.00
2022-08-07T11:28:55.662Z,12.20
2022-08-07T11:30:17.890Z,12.40
2022-08-07T11:31:26.765Z,9.80
2022-08-07T11:32:57.220Z,12.80
2022-08-07T11:34:05.782Z,11.80
2022-08-07T11:35:16.631Z,9.50
2022-08-07T11:36:35.991Z,10.70
2022-08-07T11:38:12.741Z,11.40
2022-08-07T11:39:09.970Z,10.30
2022-08-07T11:40:53.262Z,10.80
2022-08-07T11:42:02.780Z,10.80
2022-08-07T11:43:41.274Z,12.20
2022-08-07T11:44:51.982Z,13.40
2022-08-07T11:46:07.325Z,10.40
2022-08-07T11:47:56.132Z,10.80
2022-08-07T11:49:50.346Z,9.40
2022-08-07T11:50:36.841Z,11.70
2022-08-07T11:52:10.485Z,11.30
2022-08-07T11:53:43.304Z,11.30
2022-08-07T11:55:18.584Z,11.40
2022-08-07T11:56:26.769Z,9.60
2022-08-07T11:58:00.820Z,10.90
2022-08-07T11:59:00.365Z,8.90
2022-08-07T12:00:19.788Z,13.80
2022-08-07T12:02:00.576Z,14.40
2022-08-07T12:03:05.882Z,11.30
2022-08-07T12:04:28.248Z,11.40
2022-08-07T12:07:26.914Z,14.60
2022-08-07T12:08:38.708Z,12.20
2022-08-07T12:09:49.574Z,12.20
2022-08-07T12:11:20.094Z,10.80
2022-08-07T12:12:11.573Z,13.80
2022-08-07T12:13:37.065Z,13.10
2022-08-07T12:14:34.094Z,13.60
2022-08-07T12:16:07.034Z,12.30
2022-08-07T12:16:55.335Z,12.90
2022-08-07T12:18:08.120Z,11.30
2022-08-07T12:19:23.017Z,14.70
2022-08-07T12:20:32.347Z,11.90
2022-08-07T12:22:36.393Z,14.00
2022-08-07T12:25:07.531Z,11.20
2022-08-07T12:26:30.002Z,13.70
2022-08-07T12:28:08.721Z,6.30
2022-08-07T12:28:53.183Z,15.40
2022-08-07T12:29:58.312Z,13.00
2022-08-07T12:31:09.408Z,16.40
2022-08-07T12:32:31.729Z,18.90
2022-08-07T12:34:00.611Z,15.80
2022-08-07T12:34:42.503Z,13.10
2022-08-07T12:35:58.185Z,15.40
2022-08-07T12:36:57.540Z,15.30
2022-08-07T12:38:11.531Z,14.40
2022-08-07T12:39:09.270Z,17.60
2022-08-07T12:40:44.946Z,14.80
2022-08-07T12:41:22.512Z,10.10
2022-08-07T12:42:32.164Z,16.50
2022-08-07T12:44:03.586Z,15.20
2022-08-07T12:44:44.976Z,16.20
2022-08-07T12:46:26.369Z,14.70
2022-08-07T12:47:49.292Z,18.00
2022-08-07T12:49:10.233Z,14.20
2022-08-07T12:50:34.490Z,12.90
2022-08-07T12:51:46.408Z,13.80
2022-08-07T12:52:52.226Z,14.20
2022-08-07T12:54:37.095Z,16.00
2022-08-07T12:55:40.642Z,15.80
2022-08-07T12:56:39.792Z,18.80
2022-08-07T12:58:00.437Z,16.40
2022-08-07T12:58:53.209Z,19.40
2022-08-07T13:00:01.983Z,17.40
2022-08-07T13:02:49.367Z,21.20
2022-08-07T13:04:09.836Z,11.50
2022-08-07T13:06:02.578Z,20.30
2022-08-07T13:07:21.299Z,15.20
2022-08-07T13:08:40.664Z,19.40
2022-08-07T13:10:21.396Z,19.80
2022-08-07T13:11:24.558Z,17.20
2022-08-07T13:12:50.410Z,19.00
2022-08-07T13:14:15.747Z,14.70
2022-08-07T13:15:48.631Z,16.50
2022-08-07T13:17:12.525Z,20.30
2022-08-07T13:18:53.830Z,18.80
2022-08-07T13:20:18.562Z,19.50
2022-08-07T13:21:50.194Z,20.90
2022-08-07T13:22:42.908Z,14.90
2022-08-07T13:24:00.608Z,15.80
2022-08-07T13:25:15.140Z,19.30
2022-08-07T13:26:28.797Z,18.90
2022-08-07T13:28:10.904Z,18.60
2022-08-07T13:28:45.149Z,19.30
2022-08-07T13:30:03.613Z,16.90
2022-08-07T13:31:16.080Z,20.10
2022-08-07T13:32:31.303Z,21.60
2022-08-07T13:34:31.337Z,20.30
2022-08-07T13:34:59.166Z,19.50
2022-08-07T13:36:17.471Z,18.30
2022-08-07T13:37:43.096Z,14.80
2022-08-07T13:39:12.662Z,18.20
2022-08-07T13:40:35.301Z,14.60
2022-08-07T13:41:32.181Z,17.80
2022-08-07T13:42:39.695Z,17.40
2022-08-07T13:43:44.534Z,19.80
2022-08-07T13:45:11.512Z,13.70
2022-08-07T13:46:11.225Z,15.90
2022-08-07T13:47:09.424Z,16.60
2022-08-07T13:48:27.885Z,15.40
2022-08-07T13:50:33.522Z,7.80
2022-08-07T13:50:33.872Z,18.80
2022-08-07T13:52:05.237Z,15.30
2022-08-07T13:52:41.114Z,17.80
2022-08-07T13:53:59.364Z,18.60
2022-08-07T13:54:59.140Z,16.30
2022-08-07T13:56:05.252Z,17.60
2022-08-07T13:57:10.503Z,16.80
2022-08-07T13:58:26.033Z,16.60
2022-08-07T13:59:27.076Z,6.80
2022-08-07T14:00:50.472Z,18.20
2022-08-07T14:02:03.635Z,16.60
2022-08-07T14:02:59.631Z,17.10
2022-08-07T14:04:14.363Z,19.10
2022-08-07T14:05:20.620Z,12.00
2022-08-07T14:06:27.858Z,17.10
2022-08-07T14:07:59.435Z,13.60
2022-08-07T14:08:53.468Z,16.70
2022-08-07T14:10:12.025Z,16.70
2022-08-07T14:11:15.113Z,12.20
2022-08-07T14:13:34.658Z,18.10
2022-08-07T14:14:46.903Z,15.20
2022-08-07T14:16:02.341Z,16.00
2022-08-07T14:17:32.317Z,20.40
2022-08-07T14:18:29.351Z,18.80
2022-08-07T14:20:43.150Z,12.80
2022-08-07T14:22:01.890Z,14.60
2022-08-07T14:22:41.005Z,14.60
2022-08-07T14:23:00.611Z,14.20
2022-08-07T14:24:10.355Z,14.30
2022-08-07T14:25:16.397Z,16.10
2022-08-07T14:26:29.766Z,14.20
2022-08-07T14:28:11.844Z,14.40
2022-08-07T14:28:57.274Z,12.70
2022-08-07T14:30:06.590Z,14.60
2022-08-07T14:30:56.147Z,11.80
2022-08-07T14:32:03.087Z,13.30
2022-08-07T14:33:07.668Z,15.70
2022-08-07T14:34:12.150Z,9.90
2022-08-07T14:35:43.246Z,13.00
2022-08-07T14:36:31.633Z,14.90
2022-08-07T14:37:39.203Z,11.70
2022-08-07T14:38:50.274Z,12.90
2022-08-07T14:40:15.935Z,10.90
2022-08-07T14:40:59.442Z,13.10
2022-08-07T14:42:20.617Z,11.90
2022-08-07T14:43:57.320Z,13.80
2022-08-07T14:44:19.856Z,14.20
2022-08-07T14:45:48.692Z,16.60
2022-08-07T14:47:58.880Z,14.50
2022-08-07T14:49:17.536Z,10.90
2022-08-07T14:50:11.338Z,15.90
2022-08-07T14:51:17.593Z,14.90
2022-08-07T14:52:27.746Z,11.10
2022-08-07T14:54:03.626Z,13.10
2022-08-07T14:54:42.222Z,16.50
2022-08-07T14:55:56.508Z,16.20
2022-08-07T14:56:49.827Z,11.00
2022-08-07T14:57:59.145Z,12.80
2022-08-07T14:59:03.213Z,10.50
2022-08-07T15:00:09.263Z,11.50
2022-08-07T15:01:22.518Z,13.80
2022-08-07T15:02:31.739Z,11.90
2022-08-07T15:03:52.368Z,14.30
2022-08-07T15:04:34.015Z,10.10
2022-08-07T15:05:54.202Z,14.40
2022-08-07T15:07:52.202Z,11.00
2022-08-07T15:08:57.140Z,13.10
2022-08-07T15:10:04.714Z,15.40
2022-08-07T15:11:07.762Z,15.40
2022-08-07T15:12:31.845Z,14.70
2022-08-07T15:13:37.416Z,13.40
2022-08-07T15:14:55.774Z,14.70
2022-08-07T15:15:52.739Z,13.20
2022-08-07T15:17:01.383Z,15.00